Padua, Illinois
Current Conditions -  °F | °C
As of 5:56 PM on Wednesday 22 Oct 2014 (Local Time) from KBMI Reporting Station
Clear Clear  
Wind Chill: 55°   Ceiling: Unl
Heat Index: 55°   Visibility: 10mi
Dew Point: 36°   Wind: 6mph
Humidity: 49%   Direction: 130°SE
Pressure: 30.25"   Gusts: NA
Location:  40.4429°N, 88.7467°W
Report Text: KBMI 222256Z 13005KT 10SM CLR 13/02 A3025 RMK AO2 T01270022 SLP250
Loading
Personal Weather Stations






























Interactive Weather Map
Tropical Storm Tracking
New forecast layout! Learn more

10-Day Weather Forecast

Advertisements
Track Severe Weather on mobile